TimeCST,TemperatureF,Dew PointF,Humidity,Sea Level PressureIn,VisibilityMPH,Wind Direction,Wind SpeedMPH,Gust SpeedMPH,PrecipitationIn,Events,Conditions,WindDirDegrees,DateUTC
12:56 AM,44.1,37.0,76,30.14,10.0,ESE,4.6,-,N/A,,Overcast,110,2013-01-08 06:56:00
1:56 AM,44.1,37.9,79,30.15,10.0,SSE,3.5,-,N/A,,Overcast,160,2013-01-08 07:56:00
2:56 AM,44.1,37.9,79,30.14,10.0,East,3.5,-,N/A,,Overcast,80,2013-01-08 08:56:00
3:56 AM,45.0,37.9,76,30.13,10.0,East,3.5,-,N/A,,Overcast,90,2013-01-08 09:56:00
4:56 AM,45.0,37.9,76,30.11,10.0,East,5.8,-,N/A,,Overcast,90,2013-01-08 10:56:00
5:54 AM,44.6,39.2,81,30.12,7.0,Calm,Calm,-,0.00,Rain,Light Rain,0,2013-01-08 11:54:00
5:56 AM,45.0,39.9,82,30.12,7.0,East,3.5,-,0.00,Rain,Light Rain,100,2013-01-08 11:56:00
6:18 AM,44.6,39.2,81,30.12,10.0,East,3.5,-,0.00,,Overcast,80,2013-01-08 12:18:00
6:56 AM,45.0,41.0,86,30.12,9.0,East,5.8,-,0.01,Rain,Light Rain,80,2013-01-08 12:56:00
7:56 AM,46.0,41.0,83,30.13,10.0,ENE,3.5,-,0.00,,Overcast,70,2013-01-08 13:56:00
8:56 AM,48.0,41.0,77,30.16,10.0,SE,5.8,-,N/A,,Overcast,130,2013-01-08 14:56:00
9:04 AM,48.2,41.0,76,30.15,10.0,ESE,5.8,-,N/A,,Overcast,110,2013-01-08 15:04:00
9:56 AM,50.0,42.1,74,30.16,10.0,ESE,5.8,-,N/A,,Overcast,110,2013-01-08 15:56:00
10:22 AM,50.0,42.8,76,30.13,10.0,East,9.2,-,N/A,,Overcast,100,2013-01-08 16:22:00
10:56 AM,51.1,43.0,74,30.13,10.0,East,8.1,-,N/A,,Overcast,100,2013-01-08 16:56:00
11:04 AM,51.8,42.8,71,30.15,7.0,SSW,10.4,-,N/A,Thunderstorm,Thunderstorm,210,2013-01-08 17:04:00
11:32 AM,50.0,46.4,87,30.11,4.0,Calm,Calm,-,0.03,Rain-Thunderstorm,Light Thunderstorms and Rain,0,2013-01-08 17:32:00
11:56 AM,51.1,46.9,86,30.11,7.0,Calm,Calm,-,0.05,Rain,Light Rain,0,2013-01-08 17:56:00
12:56 PM,51.1,48.9,92,30.07,5.0,ESE,4.6,-,0.02,Rain,Rain,110,2013-01-08 18:56:00
1:41 PM,51.8,50.0,94,30.04,8.0,ESE,9.2,-,0.02,,Overcast,110,2013-01-08 19:41:00
1:56 PM,52.0,51.1,97,30.04,7.0,East,8.1,-,0.02,,Overcast,90,2013-01-08 19:56:00
2:56 PM,52.0,51.1,97,30.04,7.0,ENE,5.8,-,N/A,,Overcast,70,2013-01-08 20:56:00
3:30 PM,51.8,51.8,100,30.03,5.0,East,5.8,-,N/A,,Overcast,90,2013-01-08 21:30:00
3:56 PM,52.0,51.1,97,30.04,4.0,ESE,6.9,-,0.00,Rain,Light Rain,120,2013-01-08 21:56:00
4:46 PM,53.6,51.8,94,30.06,2.5,NE,8.1,-,0.04,Rain,Rain,40,2013-01-08 22:46:00
4:56 PM,53.1,51.1,93,30.05,2.0,East,3.5,-,0.07,Rain,Rain,90,2013-01-08 22:56:00
5:15 PM,53.6,51.8,94,30.06,2.0,East,4.6,-,0.04,Rain,Rain,90,2013-01-08 23:15:00
5:56 PM,53.1,52.0,96,30.07,2.0,ENE,6.9,-,0.14,Rain,Rain,60,2013-01-08 23:56:00
6:28 PM,53.6,53.6,100,30.07,3.0,East,6.9,-,0.08,Rain,Rain,90,2013-01-09 00:28:00
6:45 PM,53.6,53.6,100,30.05,3.0,East,6.9,-,0.15,Rain,Rain,90,2013-01-09 00:45:00
6:56 PM,54.0,53.1,97,30.05,4.0,East,9.2,-,0.16,Rain,Light Rain,100,2013-01-09 00:56:00
7:24 PM,53.6,53.6,100,30.06,5.0,East,6.9,-,0.04,Rain,Light Rain,100,2013-01-09 01:24:00
7:48 PM,53.6,53.6,100,30.03,5.0,East,9.2,-,0.07,Rain,Light Rain,90,2013-01-09 01:48:00
7:56 PM,55.0,54.0,96,30.04,6.0,ESE,9.2,-,0.08,Rain,Light Rain,110,2013-01-09 01:56:00
8:26 PM,55.4,53.6,94,30.05,7.0,ENE,4.6,-,0.00,Rain,Light Rain,70,2013-01-09 02:26:00
8:56 PM,55.0,54.0,96,30.06,7.0,ESE,9.2,-,0.00,,Overcast,110,2013-01-09 02:56:00
9:56 PM,55.0,54.0,96,30.06,8.0,East,4.6,-,N/A,,Overcast,90,2013-01-09 03:56:00
10:08 PM,55.4,53.6,94,30.07,7.0,East,5.8,-,0.00,Rain,Light Rain,90,2013-01-09 04:08:00
10:56 PM,55.0,54.0,96,30.07,3.0,ESE,6.9,-,0.01,Rain,Light Rain,120,2013-01-09 04:56:00
11:03 PM,55.4,53.6,94,30.07,2.5,ESE,6.9,-,0.04,Rain,Light Rain,120,2013-01-09 05:03:00
11:12 PM,55.4,53.6,94,30.07,5.0,East,9.2,-,0.04,Rain,Light Rain,100,2013-01-09 05:12:00
11:56 PM,55.0,55.0,100,30.07,3.0,East,5.8,-,0.05,,Overcast,90,2013-01-09 05:56:00